Briefing drone pour Chenove

Rechercher une autre localisation

Conditions de vol :


Nous sommes le : Mardi 24 mai 2022
Il est 11:34 UTC (13:34 LT)

Lever de soleil : 03:27 UTC (05:27 LT)
Coucher de soleil : 19:45 UTC (21:45 LT)

Météo

L'essentiel des conditions de vol

VIGILANCE MÉTÉO FRANCE - Côte-dOr (21)
Pas de vigilances particulieres
CARTES DES FRONTS
METAR de LFSD
LFSD 241130Z AUTO 23008KT 190V280 CAVOK 19/07 Q1011

Date d'émission: 24/05/2022
Heure d'émission: 11:30 UTC
Vent: 230° (variable du 190° au 280°) pour 8 KT (15 km/h)
Visibilité horizontale: > 10 km
Plafond : Plafond et visibilité OK (CAVOK)
Température: 19 °C
Point de rosée: 7 °C
Humidité: 46%
Pression (QNH): 1011 hPa
TAF de LFSD
LFSD 010600Z 0100/0124 CNL

Conditions prévues :

Heure d'émission : Bulletin éffectué le 01 à 00:00 UTC
Prévision : Valide du 01 a 00:00 UTC au 01 a 23:59 UTC
Nuages : à 0ft (0 m)
WEBCAM POUR CHENOVE

Réglementation

Voler en sécurité

CARTES AERONAUTIQUE 1/500.000
CARTES VAC (LFSD)
SUP AIP




Chargement des AIP...
NOTAM (CHENOVE + Terrain à proximité / FIR )




Chargement des NOTAMS...
CONTACT PREFECTURE 21
Côte-dOr (21) : pref-drone@cote-dor.gouv.fr


Avertissement : Les données mises à disposition sont indicatives. Oxygène Drone ne pourra être tenu responsable de dégâts causés aux biens et aux personnes.